Time;durP1;ratioP1;P1;durP2;ratioP2;P2;SDS_P1;SDS_P2;PMS_P1;PMS_P2;Temp;Humidity;BMP_temperature;BMP_pressure;BME280_temperature;BME280_humidity;BME280_pressure;Samples;Min_cycle;Max_cycle;Signal;HPM_P1;HPM_P2
2023/06/25 00:00:53;;;;;;;13.93;9.52;;;21.20;99.30;;;;;;5071580;28;20033;-57
2023/06/25 00:03:19;;;;;;;10.85;9.73;;;21.10;99.50;;;;;;5071507;28;20064;-57
2023/06/25 00:05:45;;;;;;;12.00;9.60;;;21.10;99.50;;;;;;5080587;28;20044;-57
2023/06/25 00:08:11;;;;;;;11.23;9.95;;;21.10;99.60;;;;;;5069639;28;20053;-57
2023/06/25 00:10:37;;;;;;;12.70;9.88;;;21.10;99.80;;;;;;5077333;28;20124;-56
2023/06/25 00:13:02;;;;;;;12.77;10.10;;;21.10;99.90;;;;;;5060656;28;20045;-57
2023/06/25 00:15:28;;;;;;;11.82;9.80;;;21.00;99.90;;;;;;5061739;28;20060;-57
2023/06/25 00:17:54;;;;;;;12.70;10.38;;;21.00;99.90;;;;;;5071528;28;20036;-57
2023/06/25 00:20:20;;;;;;;10.93;9.77;;;21.00;99.90;;;;;;5078858;28;20040;-56
2023/06/25 00:22:46;;;;;;;15.82;10.65;;;20.90;99.90;;;;;;5080561;28;20055;-57
2023/06/25 00:25:16;;;;;;;13.82;10.65;;;20.80;99.90;;;;;;5082510;28;20035;-56
2023/06/25 00:27:47;;;;;;;14.27;10.15;;;20.80;99.90;;;;;;5081251;28;20068;-58
2023/06/25 00:30:16;;;;;;;13.90;10.50;;;20.80;99.90;;;;;;5079988;28;20075;-57
2023/06/25 00:32:43;;;;;;;13.48;11.15;;;20.80;99.90;;;;;;5081067;28;20050;-56
2023/06/25 00:35:10;;;;;;;12.18;10.07;;;20.70;99.90;;;;;;5080096;28;20049;-56
2023/06/25 00:37:37;;;;;;;13.18;11.15;;;20.60;99.90;;;;;;5080333;28;20044;-57
2023/06/25 00:40:05;;;;;;;12.77;10.30;;;20.60;99.90;;;;;;5080703;28;20044;-55
2023/06/25 00:42:42;;;;;;;14.88;11.00;;;20.60;99.90;;;;;;5079859;28;20087;-57
2023/06/25 00:45:12;;;;;;;13.57;10.60;;;20.50;99.90;;;;;;5081604;28;20052;-56
2023/06/25 00:47:41;;;;;;;13.48;10.55;;;20.40;99.90;;;;;;5079711;28;20074;-57
2023/06/25 00:50:11;;;;;;;11.85;10.65;;;20.40;99.90;;;;;;5081624;28;20055;-57
2023/06/25 00:52:37;;;;;;;12.70;10.15;;;20.40;99.90;;;;;;5076362;28;20052;-57
2023/06/25 00:55:03;;;;;;;14.82;10.48;;;20.40;99.90;;;;;;5061346;28;20059;-57
2023/06/25 00:57:29;;;;;;;16.95;10.98;;;20.40;99.90;;;;;;5063768;28;20116;-57
2023/06/25 00:59:57;;;;;;;11.90;10.65;;;20.40;99.90;;;;;;5060174;28;20052;-56
2023/06/25 01:02:43;;;;;;;12.38;10.73;;;20.30;99.90;;;;;;5060730;28;20052;-57
2023/06/25 01:05:21;;;;;;;12.18;9.98;;;20.30;99.90;;;;;;5064724;28;20049;-56
2023/06/25 01:07:48;;;;;;;12.65;10.95;;;20.30;99.90;;;;;;5062872;28;20052;-56
2023/06/25 01:10:14;;;;;;;13.90;11.00;;;20.30;99.90;;;;;;5066144;28;20044;-58
2023/06/25 01:12:42;;;;;;;13.88;11.52;;;20.30;99.90;;;;;;5071497;28;20099;-55
2023/06/25 01:15:09;;;;;;;14.90;10.85;;;20.20;99.90;;;;;;5065325;28;20064;-57
2023/06/25 01:17:36;;;;;;;16.55;11.43;;;20.20;99.90;;;;;;5062454;28;20076;-56
2023/06/25 01:20:06;;;;;;;12.18;10.88;;;20.20;99.90;;;;;;5073483;28;20056;-57
2023/06/25 01:22:33;;;;;;;16.80;11.50;;;20.10;99.90;;;;;;5077726;28;20036;-57
2023/06/25 01:24:59;;;;;;;14.95;12.05;;;20.00;99.90;;;;;;5060716;28;20760;-57
2023/06/25 01:27:25;;;;;;;14.57;12.18;;;20.00;99.90;;;;;;5067144;28;20045;-56
2023/06/25 01:29:51;;;;;;;14.55;11.48;;;20.00;99.90;;;;;;5079853;28;20093;-56
2023/06/25 01:32:18;;;;;;;15.20;11.57;;;19.90;99.90;;;;;;5080586;28;20100;-57
2023/06/25 01:34:44;;;;;;;15.60;12.57;;;19.90;99.90;;;;;;5076367;28;20028;-56
2023/06/25 01:37:11;;;;;;;14.30;11.40;;;19.80;99.90;;;;;;5060586;28;20068;-57
2023/06/25 01:39:37;;;;;;;15.75;11.73;;;19.80;99.90;;;;;;5058841;28;20046;-56
2023/06/25 01:42:04;;;;;;;14.77;11.98;;;19.70;99.90;;;;;;5059942;28;20037;-57
2023/06/25 01:44:31;;;;;;;19.38;12.50;;;19.70;99.90;;;;;;5060242;28;20049;-57
2023/06/25 01:46:58;;;;;;;16.08;12.38;;;19.60;99.90;;;;;;5059716;28;20045;-56
2023/06/25 01:49:24;;;;;;;16.25;12.63;;;19.60;99.90;;;;;;5060130;28;20102;-56
2023/06/25 01:51:50;;;;;;;14.98;12.00;;;19.50;99.90;;;;;;5061911;28;20066;-57
2023/06/25 01:54:16;;;;;;;16.83;12.80;;;19.50;99.90;;;;;;5060360;28;20509;-57
2023/06/25 01:56:42;;;;;;;17.85;12.93;;;19.50;99.90;;;;;;5058125;28;20040;-57
2023/06/25 01:59:09;;;;;;;18.17;13.75;;;19.50;99.90;;;;;;5060576;28;20053;-57
2023/06/25 02:01:34;;;;;;;16.83;12.50;;;19.40;99.90;;;;;;5061288;28;20036;-57
2023/06/25 02:04:00;;;;;;;16.02;13.45;;;19.40;99.90;;;;;;5059448;28;20107;-57
2023/06/25 02:06:26;;;;;;;17.50;13.55;;;19.40;99.90;;;;;;5059591;28;20049;-57
2023/06/25 02:08:51;;;;;;;14.85;12.95;;;19.40;99.90;;;;;;5058551;28;20099;-57
2023/06/25 02:11:17;;;;;;;15.52;13.57;;;19.30;99.90;;;;;;5059896;28;20025;-60
2023/06/25 02:13:43;;;;;;;17.80;13.18;;;19.30;99.90;;;;;;5058279;28;20049;-57
2023/06/25 02:16:08;;;;;;;22.38;13.23;;;19.30;99.90;;;;;;5058964;28;20121;-56
2023/06/25 02:18:35;;;;;;;17.25;12.68;;;19.30;99.90;;;;;;5065100;28;20049;-56
2023/06/25 02:21:01;;;;;;;20.35;12.85;;;19.30;99.90;;;;;;5069291;28;20027;-57
2023/06/25 02:23:26;;;;;;;15.02;13.05;;;19.20;99.90;;;;;;5066117;28;20068;-57
2023/06/25 02:25:52;;;;;;;18.42;14.35;;;19.30;99.90;;;;;;5077987;28;20044;-56
2023/06/25 02:28:18;;;;;;;17.77;13.68;;;19.20;99.90;;;;;;5071410;28;20052;-57
2023/06/25 02:30:43;;;;;;;19.08;12.43;;;19.20;99.90;;;;;;5075765;28;20079;-57
2023/06/25 02:33:09;;;;;;;18.05;12.65;;;19.20;99.90;;;;;;5059338;28;20037;-57
2023/06/25 02:35:35;;;;;;;16.42;13.70;;;19.20;99.90;;;;;;5058802;28;20056;-58
2023/06/25 02:38:01;;;;;;;18.23;13.95;;;19.20;99.90;;;;;;5058817;28;20048;-57
2023/06/25 02:40:29;;;;;;;17.88;14.57;;;19.10;99.90;;;;;;5065354;28;20058;-56
2023/06/25 02:42:55;;;;;;;19.20;13.95;;;19.10;99.90;;;;;;5078352;28;20036;-55
2023/06/25 02:45:22;;;;;;;20.33;14.50;;;19.10;99.90;;;;;;5063202;28;20175;-56
2023/06/25 02:47:48;;;;;;;20.67;15.18;;;19.10;99.90;;;;;;5058011;28;20087;-56
2023/06/25 02:50:14;;;;;;;18.13;14.80;;;19.00;99.90;;;;;;5059478;28;20041;-57
2023/06/25 02:52:40;;;;;;;19.60;14.55;;;19.00;99.90;;;;;;5058163;28;20128;-56
2023/06/25 02:55:06;;;;;;;22.75;15.77;;;19.00;99.90;;;;;;5070906;28;20065;-57
2023/06/25 02:57:32;;;;;;;23.70;16.25;;;18.90;99.90;;;;;;5064515;28;20044;-57
2023/06/25 02:59:58;;;;;;;20.08;15.65;;;18.90;99.90;;;;;;5062055;28;20041;-57
2023/06/25 03:02:23;;;;;;;21.45;15.88;;;18.90;99.90;;;;;;5063443;28;20045;-57
2023/06/25 03:04:49;;;;;;;20.70;16.35;;;18.90;99.90;;;;;;5065427;28;20048;-57
2023/06/25 03:07:15;;;;;;;23.45;16.23;;;18.90;99.90;;;;;;5078877;28;20036;-57
2023/06/25 03:09:42;;;;;;;22.88;16.45;;;18.80;99.90;;;;;;5073408;28;20067;-57
2023/06/25 03:12:08;;;;;;;19.35;15.30;;;18.80;99.90;;;;;;5082981;28;20036;-58
2023/06/25 03:14:39;;;;;;;24.38;16.65;;;18.80;99.90;;;;;;5082895;28;20112;-56
2023/06/25 03:17:05;;;;;;;22.23;16.05;;;18.80;99.90;;;;;;5082197;28;20388;-56
2023/06/25 03:19:31;;;;;;;22.30;15.82;;;18.80;99.90;;;;;;5083269;28;20100;-56
2023/06/25 03:21:56;;;;;;;22.42;16.85;;;18.80;99.90;;;;;;5080890;28;20046;-58
2023/06/25 03:24:22;;;;;;;18.92;16.05;;;18.80;99.90;;;;;;5082968;28;20055;-57
2023/06/25 03:26:48;;;;;;;25.50;16.05;;;18.80;99.90;;;;;;5075902;28;20109;-57
2023/06/25 03:29:14;;;;;;;20.38;16.10;;;18.80;99.90;;;;;;5067736;28;20049;-56
2023/06/25 03:31:40;;;;;;;24.35;15.82;;;18.70;99.90;;;;;;5065683;28;20056;-56
2023/06/25 03:34:05;;;;;;;19.95;16.33;;;18.80;99.90;;;;;;5076979;28;20107;-57
2023/06/25 03:36:31;;;;;;;19.17;15.88;;;18.70;99.90;;;;;;5074049;28;20044;-57
2023/06/25 03:38:57;;;;;;;21.13;16.30;;;18.70;99.90;;;;;;5087094;28;20147;-57
2023/06/25 03:41:23;;;;;;;22.60;15.80;;;18.70;99.90;;;;;;5064291;28;20116;-56
2023/06/25 03:43:49;;;;;;;21.15;15.68;;;18.70;99.90;;;;;;5073149;28;20045;-57
2023/06/25 03:46:14;;;;;;;21.35;15.38;;;18.70;99.90;;;;;;5063154;28;20539;-57
2023/06/25 03:48:42;;;;;;;21.88;16.10;;;18.70;99.90;;;;;;5078497;28;20036;-57
2023/06/25 03:51:08;;;;;;;20.65;16.02;;;18.70;99.90;;;;;;5074119;28;20079;-57
2023/06/25 03:53:34;;;;;;;20.92;16.05;;;18.70;99.90;;;;;;5067480;28;20403;-56
2023/06/25 03:56:00;;;;;;;19.40;15.75;;;18.70;99.90;;;;;;5071446;28;20040;-56
2023/06/25 03:58:25;;;;;;;20.05;16.20;;;18.70;99.90;;;;;;5079842;28;20055;-57
2023/06/25 04:00:51;;;;;;;22.88;16.17;;;18.70;99.90;;;;;;5069001;28;20045;-57
2023/06/25 04:03:17;;;;;;;21.08;16.05;;;18.70;99.90;;;;;;5065924;28;20064;-56
2023/06/25 04:05:44;;;;;;;21.48;16.55;;;18.70;99.90;;;;;;5067962;28;20045;-57
2023/06/25 04:08:10;;;;;;;24.63;16.15;;;18.70;99.90;;;;;;5072721;28;20070;-58
2023/06/25 04:10:36;;;;;;;22.17;15.80;;;18.70;99.90;;;;;;5068334;28;20087;-56
2023/06/25 04:13:01;;;;;;;19.85;15.27;;;18.70;99.90;;;;;;5068167;28;20043;-57
2023/06/25 04:15:27;;;;;;;21.50;15.77;;;18.70;99.90;;;;;;5071619;28;20041;-56
2023/06/25 04:17:53;;;;;;;21.73;16.10;;;18.70;99.90;;;;;;5062277;28;20109;-57
2023/06/25 04:20:19;;;;;;;22.45;16.27;;;18.70;99.90;;;;;;5074252;28;20048;-58
2023/06/25 04:22:44;;;;;;;23.23;16.50;;;18.70;99.90;;;;;;5072902;28;20037;-57
2023/06/25 04:25:10;;;;;;;21.15;15.35;;;18.70;99.90;;;;;;5075375;28;20127;-56
2023/06/25 04:27:36;;;;;;;19.63;15.45;;;18.70;99.90;;;;;;5081270;28;20044;-58
2023/06/25 04:30:02;;;;;;;22.65;15.88;;;18.70;99.90;;;;;;5081671;28;20040;-57
2023/06/25 04:32:27;;;;;;;21.42;16.70;;;18.70;99.90;;;;;;5081807;28;20044;-56
2023/06/25 04:34:53;;;;;;;22.33;16.23;;;18.70;99.90;;;;;;5067918;28;20041;-57
2023/06/25 04:37:19;;;;;;;20.55;15.95;;;18.80;99.90;;;;;;5063070;28;20055;-57
2023/06/25 04:39:45;;;;;;;23.10;16.13;;;18.80;99.90;;;;;;5080339;28;20040;-57
2023/06/25 04:42:10;;;;;;;21.92;15.60;;;18.80;99.90;;;;;;5081667;28;20051;-56
2023/06/25 04:44:36;;;;;;;21.67;16.55;;;18.80;99.90;;;;;;5081404;28;20037;-56
2023/06/25 04:47:02;;;;;;;21.38;16.25;;;18.80;99.90;;;;;;5080648;28;20071;-57
2023/06/25 04:49:27;;;;;;;21.30;16.02;;;18.50;99.90;;;;;;5080425;28;20386;-56
2023/06/25 04:51:53;;;;;;;21.38;16.23;;;18.90;99.90;;;;;;5068039;28;20033;-56
2023/06/25 04:54:18;;;;;;;20.67;15.90;;;18.90;99.90;;;;;;5064663;28;20064;-57
2023/06/25 04:56:44;;;;;;;21.10;16.17;;;18.90;99.90;;;;;;5059795;28;20044;-56
2023/06/25 04:59:10;;;;;;;20.75;16.13;;;18.90;99.90;;;;;;5064148;28;20377;-56
2023/06/25 05:01:35;;;;;;;23.73;17.73;;;19.00;99.90;;;;;;5063485;28;20544;-56
2023/06/25 05:04:01;;;;;;;20.45;15.82;;;19.00;99.90;;;;;;5073150;28;20040;-57
2023/06/25 05:06:27;;;;;;;21.27;17.13;;;19.00;99.90;;;;;;5064715;28;20061;-56
2023/06/25 05:08:52;;;;;;;20.13;15.82;;;19.00;99.90;;;;;;5070536;28;20032;-57
2023/06/25 05:11:18;;;;;;;19.65;16.17;;;18.60;99.90;;;;;;5072829;28;20046;-58
2023/06/25 05:13:43;;;;;;;21.42;15.93;;;19.10;99.90;;;;;;5067337;28;20041;-56
2023/06/25 05:16:09;;;;;;;23.98;16.50;;;19.20;99.90;;;;;;5077195;28;20096;-57
2023/06/25 05:18:37;;;;;;;20.67;16.83;;;19.20;99.90;;;;;;5069590;28;20045;-58
2023/06/25 05:21:02;;;;;;;24.05;15.73;;;19.20;99.90;;;;;;5071913;28;20399;-57
2023/06/25 05:23:37;;;;;;;22.63;16.42;;;19.30;99.90;;;;;;5074243;28;20041;-56
2023/06/25 05:26:03;;;;;;;20.10;16.50;;;19.30;99.90;;;;;;5064250;28;20041;-57
2023/06/25 05:28:29;;;;;;;20.02;15.90;;;19.40;99.90;;;;;;5060764;28;20094;-56
2023/06/25 05:30:54;;;;;;;22.90;16.52;;;19.40;99.90;;;;;;5072572;28;20509;-57
2023/06/25 05:33:20;;;;;;;24.23;16.50;;;19.50;99.90;;;;;;5071787;28;20041;-57
2023/06/25 05:35:45;;;;;;;19.83;16.20;;;19.50;99.90;;;;;;5079397;28;20094;-57
2023/06/25 05:38:11;;;;;;;21.70;16.98;;;19.60;99.90;;;;;;5059616;28;20048;-56
2023/06/25 05:40:37;;;;;;;20.90;16.48;;;19.70;99.90;;;;;;5060267;28;20106;-57
2023/06/25 05:43:02;;;;;;;20.77;16.38;;;19.70;99.90;;;;;;5068542;28;20055;-57
2023/06/25 05:45:28;;;;;;;21.60;16.88;;;19.80;99.90;;;;;;5060392;28;20159;-56
2023/06/25 05:47:54;;;;;;;18.85;16.67;;;19.80;99.90;;;;;;5075747;28;20507;-56
2023/06/25 05:50:19;;;;;;;20.38;16.98;;;19.90;99.90;;;;;;5077727;28;20053;-56
2023/06/25 05:52:46;;;;;;;20.02;16.15;;;19.90;99.90;;;;;;5072146;28;20044;-57
2023/06/25 05:55:12;;;;;;;21.67;16.52;;;20.00;99.90;;;;;;5059609;28;20056;-58
2023/06/25 05:57:37;;;;;;;22.63;17.20;;;20.10;99.90;;;;;;5067949;28;20044;-56
2023/06/25 06:00:04;;;;;;;23.38;17.38;;;20.20;99.90;;;;;;5064774;28;20048;-56
2023/06/25 06:02:30;;;;;;;21.60;17.58;;;20.20;99.90;;;;;;5078461;28;20036;-56
2023/06/25 06:04:55;;;;;;;22.88;17.80;;;20.30;99.90;;;;;;5078031;28;20036;-56
2023/06/25 06:07:21;;;;;;;22.42;17.92;;;20.30;99.90;;;;;;5072797;28;20036;-56
2023/06/25 06:09:47;;;;;;;23.60;17.85;;;20.40;99.90;;;;;;5068483;28;20045;-56
2023/06/25 06:12:12;;;;;;;22.17;17.48;;;20.50;99.90;;;;;;5058447;28;20132;-56
2023/06/25 06:14:40;;;;;;;22.17;18.98;;;20.50;99.90;;;;;;5059619;28;20064;-55
2023/06/25 06:17:05;;;;;;;23.08;17.70;;;20.60;99.90;;;;;;5060891;28;20045;-56
2023/06/25 06:19:31;;;;;;;24.23;18.05;;;20.70;99.90;;;;;;5070896;28;20109;-56
2023/06/25 06:21:57;;;;;;;24.27;18.63;;;20.80;99.90;;;;;;5070721;28;20040;-56
2023/06/25 06:24:22;;;;;;;22.10;17.42;;;20.80;99.90;;;;;;5070926;28;20083;-56
2023/06/25 06:26:51;;;;;;;24.00;17.73;;;21.00;99.90;;;;;;5071950;28;20084;-56
2023/06/25 06:29:19;;;;;;;22.63;18.13;;;21.00;99.90;;;;;;5076468;28;20425;-56
2023/06/25 06:31:44;;;;;;;18.73;16.63;;;21.20;99.90;;;;;;5060619;28;20048;-56
2023/06/25 06:34:10;;;;;;;22.10;18.02;;;21.30;99.90;;;;;;5066610;28;20032;-55
2023/06/25 06:36:36;;;;;;;20.92;17.77;;;21.50;99.90;;;;;;5069573;28;20106;-56
2023/06/25 06:39:02;;;;;;;20.20;17.95;;;21.60;99.90;;;;;;5065183;28;20029;-56
2023/06/25 06:41:28;;;;;;;25.98;19.38;;;21.90;99.90;;;;;;5071967;28;20094;-60
2023/06/25 06:43:53;;;;;;;26.90;18.48;;;22.00;99.90;;;;;;5076090;28;20036;-56
2023/06/25 06:46:19;;;;;;;21.92;17.23;;;22.20;99.90;;;;;;5063823;28;20109;-56
2023/06/25 06:48:45;;;;;;;22.35;17.63;;;22.40;99.90;;;;;;5070565;28;20033;-57
2023/06/25 06:51:10;;;;;;;19.40;16.13;;;22.50;99.90;;;;;;5072422;28;20040;-56
2023/06/25 06:53:36;;;;;;;18.80;16.48;;;22.70;99.90;;;;;;5059321;28;20100;-56
2023/06/25 06:56:02;;;;;;;19.85;16.65;;;22.90;99.90;;;;;;5067288;28;20040;-57
2023/06/25 06:58:27;;;;;;;21.80;17.80;;;23.10;99.90;;;;;;5067759;28;20060;-56
2023/06/25 07:00:53;;;;;;;19.73;16.23;;;23.20;99.90;;;;;;5069916;28;20058;-57
2023/06/25 07:03:19;;;;;;;17.55;15.32;;;23.40;99.90;;;;;;5065566;28;20093;-56
2023/06/25 07:05:44;;;;;;;19.92;15.57;;;23.60;99.90;;;;;;5076013;28;20029;-55
2023/06/25 07:08:10;;;;;;;19.85;15.70;;;23.70;99.90;;;;;;5064860;28;20101;-57
2023/06/25 07:10:36;;;;;;;20.85;16.67;;;23.90;99.90;;;;;;5073333;28;20376;-56
2023/06/25 07:13:02;;;;;;;17.00;15.05;;;24.00;99.90;;;;;;5073959;28;20055;-56
2023/06/25 07:15:27;;;;;;;18.13;15.85;;;24.20;99.90;;;;;;5075617;28;20036;-55
2023/06/25 07:17:53;;;;;;;16.45;14.40;;;24.30;99.90;;;;;;5076285;28;20045;-56
2023/06/25 07:20:19;;;;;;;16.95;13.38;;;24.40;99.90;;;;;;5073969;28;20040;-56
2023/06/25 07:22:44;;;;;;;14.32;12.82;;;24.60;99.90;;;;;;5062456;28;20518;-56
2023/06/25 07:25:10;;;;;;;17.27;14.70;;;24.70;99.90;;;;;;5068601;28;20099;-56
2023/06/25 07:27:36;;;;;;;15.98;14.27;;;24.90;99.90;;;;;;5057669;28;20053;-56
2023/06/25 07:30:04;;;;;;;18.70;13.32;;;25.00;99.90;;;;;;5057890;28;20047;-56
2023/06/25 07:32:30;;;;;;;16.42;13.43;;;25.20;99.90;;;;;;5077558;28;20059;-56
2023/06/25 07:34:57;;;;;;;15.90;13.38;;;25.30;99.90;;;;;;5058916;28;20045;-56
2023/06/25 07:37:23;;;;;;;14.70;13.00;;;25.50;99.90;;;;;;5058397;28;20039;-56
2023/06/25 07:39:48;;;;;;;14.35;12.82;;;25.70;99.90;;;;;;5070229;28;20072;-56
2023/06/25 07:42:14;;;;;;;13.98;12.13;;;26.00;99.90;;;;;;5075415;28;20047;-55
2023/06/25 07:44:40;;;;;;;13.55;12.13;;;26.30;99.90;;;;;;5068241;28;20434;-56
2023/06/25 07:47:06;;;;;;;13.13;11.38;;;26.50;99.90;;;;;;5076171;28;20048;-56
2023/06/25 07:49:32;;;;;;;11.80;10.07;;;26.80;99.90;;;;;;5070615;28;20039;-56
2023/06/25 07:51:57;;;;;;;11.40;9.80;;;27.00;99.90;;;;;;5066077;28;20060;-56
2023/06/25 07:54:23;;;;;;;11.32;10.10;;;27.30;99.90;;;;;;5074913;28;20452;-57
2023/06/25 07:56:49;;;;;;;10.32;8.82;;;27.50;99.90;;;;;;5065062;28;20041;-56
2023/06/25 07:59:15;;;;;;;10.90;8.35;;;27.70;99.90;;;;;;5068608;28;20068;-56
2023/06/25 08:01:41;;;;;;;9.95;6.85;;;27.90;99.00;;;;;;5068341;28;20037;-56
2023/06/25 08:04:07;;;;;;;9.30;7.72;;;28.00;98.00;;;;;;5079804;28;20071;-56
2023/06/25 08:06:33;;;;;;;9.50;7.40;;;28.20;97.10;;;;;;5073985;28;20037;-56
2023/06/25 08:08:59;;;;;;;10.63;7.07;;;28.50;96.70;;;;;;5060427;28;20037;-56
2023/06/25 08:11:25;;;;;;;10.57;7.38;;;28.60;96.10;;;;;;5079830;28;20055;-57
2023/06/25 08:13:50;;;;;;;7.47;6.68;;;28.80;96.20;;;;;;5078518;28;20115;-56
2023/06/25 08:16:16;;;;;;;8.20;6.82;;;29.00;95.80;;;;;;5067826;28;20041;-57
2023/06/25 08:18:42;;;;;;;7.32;5.88;;;29.00;94.60;;;;;;5072110;28;20040;-56
2023/06/25 08:21:07;;;;;;;8.52;6.20;;;29.10;94.60;;;;;;5074500;28;20568;-56
2023/06/25 08:23:33;;;;;;;6.70;6.00;;;29.20;93.40;;;;;;5072188;28;20040;-57
2023/06/25 08:25:59;;;;;;;7.68;6.18;;;29.30;92.40;;;;;;5077669;28;20068;-56
2023/06/25 08:28:25;;;;;;;8.20;6.03;;;29.30;92.50;;;;;;5061934;28;20047;-57
2023/06/25 08:30:50;;;;;;;7.97;6.43;;;29.50;91.50;;;;;;5060701;28;20456;-56
2023/06/25 08:33:16;;;;;;;6.50;5.63;;;29.50;91.30;;;;;;5061439;28;20041;-56
2023/06/25 08:35:42;;;;;;;5.95;5.28;;;29.70;91.20;;;;;;5061843;28;20048;-57
2023/06/25 08:38:08;;;;;;;9.00;5.25;;;29.70;90.70;;;;;;5061382;28;20072;-57
2023/06/25 08:40:36;;;;;;;7.03;5.32;;;29.80;90.10;;;;;;5063639;28;20048;-57
2023/06/25 08:43:02;;;;;;;6.30;5.30;;;29.90;88.30;;;;;;5069376;28;20049;-57
2023/06/25 08:45:29;;;;;;;6.32;5.18;;;30.00;87.70;;;;;;5061597;28;20055;-56
2023/06/25 08:47:57;;;;;;;9.10;5.72;;;30.10;87.20;;;;;;5070789;28;20041;-57
2023/06/25 08:50:23;;;;;;;7.45;5.43;;;30.10;85.90;;;;;;5075214;28;20040;-57
2023/06/25 08:52:50;;;;;;;6.55;5.10;;;30.20;86.40;;;;;;5069039;28;20049;-56
2023/06/25 08:55:18;;;;;;;7.88;5.47;;;30.40;85.90;;;;;;5077114;28;20041;-57
2023/06/25 08:57:43;;;;;;;6.32;4.95;;;30.50;85.30;;;;;;5073121;28;20114;-56
2023/06/25 09:00:09;;;;;;;7.15;5.97;;;30.50;84.40;;;;;;5059922;28;20045;-57
2023/06/25 09:02:35;;;;;;;7.53;5.25;;;30.60;83.50;;;;;;5077302;28;20049;-57
2023/06/25 09:05:13;;;;;;;6.82;5.68;;;30.70;83.70;;;;;;5068760;28;20046;-57
2023/06/25 09:07:46;;;;;;;6.43;5.40;;;30.80;82.60;;;;;;5079884;28;20102;-57
2023/06/25 09:10:12;;;;;;;7.60;5.70;;;30.80;80.40;;;;;;5071588;28;20041;-57
2023/06/25 09:12:38;;;;;;;7.93;4.93;;;30.80;78.90;;;;;;5060858;28;20749;-58
2023/06/25 09:15:06;;;;;;;7.50;5.22;;;30.80;80.50;;;;;;5070897;28;20044;-57
2023/06/25 09:17:31;;;;;;;7.20;4.65;;;30.90;80.00;;;;;;5079425;28;20045;-56
2023/06/25 09:20:07;;;;;;;8.45;5.38;;;30.90;79.20;;;;;;5075808;28;20036;-58
2023/06/25 09:22:33;;;;;;;7.15;4.53;;;31.00;76.50;;;;;;5055782;28;20127;-56
2023/06/25 09:24:59;;;;;;;6.13;5.03;;;31.00;77.40;;;;;;5062318;28;20551;-57
2023/06/25 09:27:25;;;;;;;6.13;5.00;;;31.10;77.60;;;;;;5066053;28;20055;-56
2023/06/25 09:29:55;;;;;;;6.63;5.38;;;31.20;78.00;;;;;;5070449;28;20055;-57
2023/06/25 09:32:20;;;;;;;8.55;5.05;;;31.10;77.60;;;;;;5065074;28;20096;-57
2023/06/25 09:34:47;;;;;;;8.00;4.65;;;31.20;76.70;;;;;;5056997;28;20057;-57
2023/06/25 09:37:12;;;;;;;6.03;5.10;;;31.20;76.20;;;;;;5069580;28;20056;-58
2023/06/25 09:39:39;;;;;;;9.60;6.25;;;31.20;75.70;;;;;;5064324;28;20044;-57
2023/06/25 09:42:07;;;;;;;7.05;5.80;;;31.20;74.70;;;;;;5066006;28;20076;-57
2023/06/25 09:44:35;;;;;;;8.27;5.28;;;31.20;73.80;;;;;;5060669;28;20029;-56
2023/06/25 09:47:07;;;;;;;8.60;4.93;;;31.10;74.80;;;;;;5059075;28;20448;-56
2023/06/25 09:49:33;;;;;;;5.57;4.72;;;31.10;76.30;;;;;;5061193;28;20049;-57
2023/06/25 09:52:12;;;;;;;9.00;5.53;;;31.10;76.30;;;;;;5065898;28;20032;-57
2023/06/25 09:54:40;;;;;;;7.60;5.70;;;31.10;76.20;;;;;;5069709;28;20044;-58
2023/06/25 09:57:14;;;;;;;6.05;5.28;;;31.00;76.20;;;;;;5071229;28;20060;-57
2023/06/25 09:59:41;;;;;;;9.27;5.50;;;31.10;76.30;;;;;;5062040;28;20129;-57
2023/06/25 10:02:07;;;;;;;6.78;5.13;;;31.00;74.60;;;;;;5060944;28;20122;-57
2023/06/25 10:04:34;;;;;;;7.57;5.13;;;31.00;75.10;;;;;;5067155;28;20044;-57
2023/06/25 10:07:04;;;;;;;7.22;5.05;;;31.00;75.40;;;;;;5062504;28;20428;-57
2023/06/25 10:09:30;;;;;;;7.60;5.03;;;31.00;75.50;;;;;;5072007;28;20080;-57
2023/06/25 10:11:57;;;;;;;6.95;5.10;;;31.00;74.50;;;;;;5057423;28;20392;-57
2023/06/25 10:14:23;;;;;;;4.65;4.15;;;31.00;74.20;;;;;;5065436;28;20101;-57
2023/06/25 10:16:54;;;;;;;7.68;4.90;;;30.90;73.20;;;;;;5062382;28;20246;-59
2023/06/25 10:19:24;;;;;;;7.60;4.72;;;30.90;71.40;;;;;;5063504;28;20041;-57
2023/06/25 10:22:15;;;;;;;5.45;4.47;;;30.90;70.90;;;;;;5063365;28;20052;-57
2023/06/25 10:24:42;;;;;;;5.15;4.28;;;30.80;71.40;;;;;;5064040;28;20044;-57
2023/06/25 10:27:29;;;;;;;6.90;4.20;;;30.60;71.00;;;;;;5069214;28;20466;-57
2023/06/25 10:29:57;;;;;;;6.65;4.45;;;30.40;68.40;;;;;;5059972;28;22019;-58
2023/06/25 10:32:25;;;;;;;8.02;4.10;;;30.40;68.70;;;;;;5065278;28;20075;-57
2023/06/25 10:34:56;;;;;;;7.07;3.78;;;30.20;68.80;;;;;;5066595;28;20052;-57
2023/06/25 10:37:29;;;;;;;5.38;4.57;;;30.00;69.10;;;;;;5071775;28;20155;-57
2023/06/25 10:40:08;;;;;;;5.07;4.00;;;30.00;69.90;;;;;;5062206;28;20063;-56
2023/06/25 10:42:37;;;;;;;5.88;4.30;;;29.90;69.30;;;;;;5060645;28;20060;-57
2023/06/25 10:45:04;;;;;;;5.75;4.30;;;29.80;69.30;;;;;;5067683;28;20052;-57
2023/06/25 10:47:29;;;;;;;5.45;4.70;;;29.80;70.00;;;;;;5066700;28;20071;-57
2023/06/25 10:49:55;;;;;;;6.70;4.60;;;29.70;70.20;;;;;;5065719;28;20048;-57
2023/06/25 10:52:21;;;;;;;5.22;4.40;;;29.70;70.30;;;;;;5061126;28;20105;-57
2023/06/25 10:54:47;;;;;;;7.40;4.22;;;29.70;70.40;;;;;;5075174;28;20202;-57
2023/06/25 10:57:14;;;;;;;5.75;4.80;;;29.70;70.30;;;;;;5065135;28;20041;-58
2023/06/25 10:59:44;;;;;;;6.45;4.70;;;29.80;70.30;;;;;;5067755;28;20047;-57
2023/06/25 11:02:28;;;;;;;8.00;4.72;;;29.70;71.10;;;;;;5061021;28;20443;-57
2023/06/25 11:04:58;;;;;;;4.95;4.30;;;29.70;72.40;;;;;;5059443;28;20068;-57
2023/06/25 11:07:25;;;;;;;7.35;4.55;;;29.80;71.30;;;;;;5061449;28;20048;-57
2023/06/25 11:09:57;;;;;;;6.93;4.90;;;29.80;70.40;;;;;;5060719;28;20032;-57
2023/06/25 11:12:23;;;;;;;5.22;4.45;;;29.80;71.50;;;;;;5070161;28;20090;-56
2023/06/25 11:14:49;;;;;;;6.22;4.75;;;29.80;72.00;;;;;;5073319;28;20052;-56
2023/06/25 11:17:17;;;;;;;5.13;3.90;;;30.00;73.30;;;;;;5068897;28;20097;-57
2023/06/25 11:19:43;;;;;;;6.18;3.92;;;30.10;72.70;;;;;;5067071;28;20672;-57
2023/06/25 11:22:10;;;;;;;5.30;4.20;;;30.20;72.60;;;;;;5067317;28;20071;-58
2023/06/25 11:24:39;;;;;;;5.57;4.55;;;30.30;72.20;;;;;;5069594;28;20508;-56
2023/06/25 11:27:05;;;;;;;5.45;3.90;;;30.40;71.40;;;;;;5067727;28;20041;-57
2023/06/25 11:29:41;;;;;;;5.07;4.10;;;30.50;70.60;;;;;;5064500;28;20480;-57
2023/06/25 11:32:09;;;;;;;4.57;4.00;;;30.50;70.20;;;;;;5065702;28;20037;-57
2023/06/25 11:34:46;;;;;;;7.63;4.40;;;30.40;69.90;;;;;;5063443;28;20056;-57
2023/06/25 11:37:14;;;;;;;5.15;4.50;;;30.50;69.90;;;;;;5063829;28;20079;-57
2023/06/25 11:39:50;;;;;;;6.00;4.20;;;30.50;68.20;;;;;;5063106;28;20512;-56
2023/06/25 11:42:24;;;;;;;5.50;4.15;;;30.50;68.90;;;;;;5061210;28;20072;-57
2023/06/25 11:45:04;;;;;;;4.30;3.85;;;30.50;68.70;;;;;;5064440;28;20040;-57
2023/06/25 11:47:30;;;;;;;6.13;3.72;;;30.60;69.70;;;;;;5060069;28;20071;-57
2023/06/25 11:49:57;;;;;;;5.82;4.53;;;30.80;71.00;;;;;;5067501;28;20044;-57
2023/06/25 11:52:23;;;;;;;6.07;4.78;;;31.00;70.90;;;;;;5069376;28;20041;-57
2023/06/25 11:54:49;;;;;;;5.25;4.28;;;31.20;69.30;;;;;;5064703;28;20129;-57
2023/06/25 11:57:16;;;;;;;5.47;4.47;;;31.20;69.90;;;;;;5064329;28;20151;-58
2023/06/25 11:59:43;;;;;;;6.20;4.47;;;31.30;69.20;;;;;;5061791;28;20037;-57
2023/06/25 12:02:09;;;;;;;5.65;4.40;;;31.20;68.10;;;;;;5074627;28;20068;-57
2023/06/25 12:04:35;;;;;;;4.88;4.40;;;31.20;68.10;;;;;;5067874;28;20435;-57
2023/06/25 12:07:01;;;;;;;5.43;4.45;;;31.20;67.90;;;;;;5064561;28;20037;-57
2023/06/25 12:09:27;;;;;;;5.03;3.97;;;31.20;67.70;;;;;;5061969;28;20047;-57
2023/06/25 12:11:53;;;;;;;6.75;4.50;;;31.20;68.10;;;;;;5073681;28;20064;-57
2023/06/25 12:14:18;;;;;;;5.32;4.10;;;31.20;68.40;;;;;;5070024;28;20064;-57
2023/06/25 12:16:44;;;;;;;5.18;4.30;;;31.30;68.10;;;;;;5069080;28;20104;-57
2023/06/25 12:19:10;;;;;;;5.00;4.50;;;31.20;67.30;;;;;;5066501;28;20045;-57
2023/06/25 12:21:35;;;;;;;5.35;4.85;;;31.30;66.00;;;;;;5071685;28;20061;-57
2023/06/25 12:24:01;;;;;;;6.22;4.95;;;31.30;66.20;;;;;;5072078;28;20432;-57
2023/06/25 12:26:27;;;;;;;5.57;4.57;;;31.30;66.50;;;;;;5064802;28;20049;-56
2023/06/25 12:28:52;;;;;;;5.60;4.63;;;31.40;67.40;;;;;;5075322;28;20044;-58
2023/06/25 12:31:18;;;;;;;6.35;4.55;;;31.60;67.10;;;;;;5067814;28;20056;-58